sensor_id;sensor_type;location;lat;lon;timestamp;P1;durP1;ratioP1;P2;durP2;ratioP2
23288;SDS011;11813;50.834;4.280;2022-07-06T00:01:23;6.37;;;3.23;;
23288;SDS011;11813;50.834;4.280;2022-07-06T00:03:49;3.67;;;3.30;;
23288;SDS011;11813;50.834;4.280;2022-07-06T00:06:14;6.43;;;3.07;;
23288;SDS011;11813;50.834;4.280;2022-07-06T00:08:42;8.13;;;3.27;;
23288;SDS011;11813;50.834;4.280;2022-07-06T00:11:08;4.53;;;3.07;;
23288;SDS011;11813;50.834;4.280;2022-07-06T00:13:33;5.07;;;3.00;;
23288;SDS011;11813;50.834;4.280;2022-07-06T00:15:59;3.73;;;2.87;;
23288;SDS011;11813;50.834;4.280;2022-07-06T00:18:25;5.63;;;3.37;;
23288;SDS011;11813;50.834;4.280;2022-07-06T00:20:50;7.10;;;4.43;;
23288;SDS011;11813;50.834;4.280;2022-07-06T00:23:16;3.37;;;2.80;;
23288;SDS011;11813;50.834;4.280;2022-07-06T00:25:42;7.73;;;4.00;;
23288;SDS011;11813;50.834;4.280;2022-07-06T00:28:08;4.67;;;3.10;;
23288;SDS011;11813;50.834;4.280;2022-07-06T00:30:33;6.40;;;3.20;;
23288;SDS011;11813;50.834;4.280;2022-07-06T00:32:59;4.33;;;3.03;;
23288;SDS011;11813;50.834;4.280;2022-07-06T00:35:25;5.80;;;2.83;;
23288;SDS011;11813;50.834;4.280;2022-07-06T00:37:51;5.30;;;3.57;;
23288;SDS011;11813;50.834;4.280;2022-07-06T00:40:17;4.73;;;3.20;;
23288;SDS011;11813;50.834;4.280;2022-07-06T00:42:44;4.73;;;2.97;;
23288;SDS011;11813;50.834;4.280;2022-07-06T00:45:11;7.87;;;3.43;;
23288;SDS011;11813;50.834;4.280;2022-07-06T00:47:39;3.67;;;3.13;;
23288;SDS011;11813;50.834;4.280;2022-07-06T00:50:06;6.23;;;3.47;;
23288;SDS011;11813;50.834;4.280;2022-07-06T00:52:40;4.77;;;3.20;;
23288;SDS011;11813;50.834;4.280;2022-07-06T00:55:10;5.20;;;3.30;;
23288;SDS011;11813;50.834;4.280;2022-07-06T00:57:37;3.87;;;3.07;;
23288;SDS011;11813;50.834;4.280;2022-07-06T01:00:05;3.50;;;3.20;;
23288;SDS011;11813;50.834;4.280;2022-07-06T01:02:32;3.77;;;3.30;;
23288;SDS011;11813;50.834;4.280;2022-07-06T01:04:58;7.60;;;3.83;;
23288;SDS011;11813;50.834;4.280;2022-07-06T01:07:24;6.03;;;3.30;;
23288;SDS011;11813;50.834;4.280;2022-07-06T01:09:50;7.27;;;3.60;;
23288;SDS011;11813;50.834;4.280;2022-07-06T01:12:16;4.53;;;3.70;;
23288;SDS011;11813;50.834;4.280;2022-07-06T01:14:42;6.03;;;3.67;;
23288;SDS011;11813;50.834;4.280;2022-07-06T01:17:08;7.73;;;3.87;;
23288;SDS011;11813;50.834;4.280;2022-07-06T01:19:34;10.13;;;4.10;;
23288;SDS011;11813;50.834;4.280;2022-07-06T01:22:00;8.27;;;4.47;;
23288;SDS011;11813;50.834;4.280;2022-07-06T01:24:26;6.70;;;4.20;;
23288;SDS011;11813;50.834;4.280;2022-07-06T01:26:51;6.17;;;3.83;;
23288;SDS011;11813;50.834;4.280;2022-07-06T01:29:17;5.60;;;3.83;;
23288;SDS011;11813;50.834;4.280;2022-07-06T01:31:45;5.57;;;3.47;;
23288;SDS011;11813;50.834;4.280;2022-07-06T01:34:13;7.67;;;4.60;;
23288;SDS011;11813;50.834;4.280;2022-07-06T01:36:40;5.77;;;4.20;;
23288;SDS011;11813;50.834;4.280;2022-07-06T01:39:05;8.03;;;4.60;;
23288;SDS011;11813;50.834;4.280;2022-07-06T01:41:33;3.90;;;3.50;;
23288;SDS011;11813;50.834;4.280;2022-07-06T01:43:59;6.60;;;4.17;;
23288;SDS011;11813;50.834;4.280;2022-07-06T01:46:25;7.97;;;4.47;;
23288;SDS011;11813;50.834;4.280;2022-07-06T01:48:51;7.67;;;3.60;;
23288;SDS011;11813;50.834;4.280;2022-07-06T01:51:16;8.50;;;4.63;;
23288;SDS011;11813;50.834;4.280;2022-07-06T01:53:42;6.63;;;4.50;;
23288;SDS011;11813;50.834;4.280;2022-07-06T01:56:08;4.67;;;3.97;;
23288;SDS011;11813;50.834;4.280;2022-07-06T01:58:34;6.30;;;3.87;;
23288;SDS011;11813;50.834;4.280;2022-07-06T02:01:00;7.37;;;4.57;;
23288;SDS011;11813;50.834;4.280;2022-07-06T02:03:31;7.67;;;3.77;;
23288;SDS011;11813;50.834;4.280;2022-07-06T02:05:56;6.40;;;4.40;;
23288;SDS011;11813;50.834;4.280;2022-07-06T02:08:22;9.20;;;3.50;;
23288;SDS011;11813;50.834;4.280;2022-07-06T02:10:48;6.27;;;3.67;;
23288;SDS011;11813;50.834;4.280;2022-07-06T02:13:13;4.63;;;4.13;;
23288;SDS011;11813;50.834;4.280;2022-07-06T02:15:39;6.97;;;4.77;;
23288;SDS011;11813;50.834;4.280;2022-07-06T02:18:04;6.67;;;4.17;;
23288;SDS011;11813;50.834;4.280;2022-07-06T02:20:30;6.20;;;4.20;;
23288;SDS011;11813;50.834;4.280;2022-07-06T02:22:56;6.77;;;4.00;;
23288;SDS011;11813;50.834;4.280;2022-07-06T02:25:21;8.70;;;4.20;;
23288;SDS011;11813;50.834;4.280;2022-07-06T02:27:47;10.47;;;4.90;;
23288;SDS011;11813;50.834;4.280;2022-07-06T02:30:12;6.67;;;4.70;;
23288;SDS011;11813;50.834;4.280;2022-07-06T02:32:38;6.60;;;4.00;;
23288;SDS011;11813;50.834;4.280;2022-07-06T02:35:04;5.37;;;4.67;;
23288;SDS011;11813;50.834;4.280;2022-07-06T02:37:30;7.83;;;4.87;;
23288;SDS011;11813;50.834;4.280;2022-07-06T02:39:55;7.43;;;4.50;;
23288;SDS011;11813;50.834;4.280;2022-07-06T02:42:21;9.07;;;4.50;;
23288;SDS011;11813;50.834;4.280;2022-07-06T02:44:46;5.33;;;4.80;;
23288;SDS011;11813;50.834;4.280;2022-07-06T02:47:12;8.53;;;4.60;;
23288;SDS011;11813;50.834;4.280;2022-07-06T02:49:37;5.10;;;4.23;;
23288;SDS011;11813;50.834;4.280;2022-07-06T02:52:03;6.80;;;4.83;;
23288;SDS011;11813;50.834;4.280;2022-07-06T02:54:29;4.60;;;4.10;;
23288;SDS011;11813;50.834;4.280;2022-07-06T02:56:54;8.03;;;5.03;;
23288;SDS011;11813;50.834;4.280;2022-07-06T02:59:20;5.97;;;4.43;;
23288;SDS011;11813;50.834;4.280;2022-07-06T03:01:46;6.50;;;4.20;;
23288;SDS011;11813;50.834;4.280;2022-07-06T03:04:11;5.97;;;4.90;;
23288;SDS011;11813;50.834;4.280;2022-07-06T03:06:37;7.10;;;4.70;;
23288;SDS011;11813;50.834;4.280;2022-07-06T03:09:02;6.47;;;4.40;;
23288;SDS011;11813;50.834;4.280;2022-07-06T03:11:28;7.67;;;4.43;;
23288;SDS011;11813;50.834;4.280;2022-07-06T03:13:53;4.87;;;4.37;;
23288;SDS011;11813;50.834;4.280;2022-07-06T03:16:19;5.63;;;4.63;;
23288;SDS011;11813;50.834;4.280;2022-07-06T03:18:45;6.13;;;5.00;;
23288;SDS011;11813;50.834;4.280;2022-07-06T03:21:10;5.50;;;4.57;;
23288;SDS011;11813;50.834;4.280;2022-07-06T03:23:36;7.87;;;4.73;;
23288;SDS011;11813;50.834;4.280;2022-07-06T03:26:01;9.73;;;4.90;;
23288;SDS011;11813;50.834;4.280;2022-07-06T03:28:27;5.87;;;4.33;;
23288;SDS011;11813;50.834;4.280;2022-07-06T03:30:53;7.57;;;5.17;;
23288;SDS011;11813;50.834;4.280;2022-07-06T03:33:19;8.37;;;5.37;;
23288;SDS011;11813;50.834;4.280;2022-07-06T03:35:44;7.33;;;5.40;;
23288;SDS011;11813;50.834;4.280;2022-07-06T03:38:10;7.67;;;5.37;;
23288;SDS011;11813;50.834;4.280;2022-07-06T03:40:36;9.23;;;5.23;;
23288;SDS011;11813;50.834;4.280;2022-07-06T03:43:01;9.40;;;5.53;;
23288;SDS011;11813;50.834;4.280;2022-07-06T03:45:27;8.30;;;5.60;;
23288;SDS011;11813;50.834;4.280;2022-07-06T03:47:52;11.27;;;5.40;;
23288;SDS011;11813;50.834;4.280;2022-07-06T03:50:18;8.30;;;5.60;;
23288;SDS011;11813;50.834;4.280;2022-07-06T03:52:43;6.00;;;5.13;;
23288;SDS011;11813;50.834;4.280;2022-07-06T03:55:09;7.67;;;4.80;;
23288;SDS011;11813;50.834;4.280;2022-07-06T03:57:36;7.70;;;5.47;;
23288;SDS011;11813;50.834;4.280;2022-07-06T04:00:06;5.93;;;5.33;;
23288;SDS011;11813;50.834;4.280;2022-07-06T04:02:32;6.33;;;5.53;;
23288;SDS011;11813;50.834;4.280;2022-07-06T04:04:58;9.77;;;5.60;;
23288;SDS011;11813;50.834;4.280;2022-07-06T04:07:24;9.13;;;7.03;;
23288;SDS011;11813;50.834;4.280;2022-07-06T04:09:50;9.63;;;6.63;;
23288;SDS011;11813;50.834;4.280;2022-07-06T04:12:16;11.93;;;6.73;;
23288;SDS011;11813;50.834;4.280;2022-07-06T04:14:41;9.80;;;7.07;;
23288;SDS011;11813;50.834;4.280;2022-07-06T04:17:07;10.57;;;7.07;;
23288;SDS011;11813;50.834;4.280;2022-07-06T04:19:51;8.87;;;6.97;;
23288;SDS011;11813;50.834;4.280;2022-07-06T04:22:17;8.13;;;6.47;;
23288;SDS011;11813;50.834;4.280;2022-07-06T04:24:42;9.27;;;6.53;;
23288;SDS011;11813;50.834;4.280;2022-07-06T04:27:08;9.27;;;6.30;;
23288;SDS011;11813;50.834;4.280;2022-07-06T04:29:34;12.80;;;7.60;;
23288;SDS011;11813;50.834;4.280;2022-07-06T04:31:59;16.87;;;7.57;;
23288;SDS011;11813;50.834;4.280;2022-07-06T04:34:25;16.53;;;8.17;;
23288;SDS011;11813;50.834;4.280;2022-07-06T04:36:50;10.67;;;7.80;;
23288;SDS011;11813;50.834;4.280;2022-07-06T04:39:16;10.13;;;6.73;;
23288;SDS011;11813;50.834;4.280;2022-07-06T04:41:41;12.33;;;7.00;;
23288;SDS011;11813;50.834;4.280;2022-07-06T04:44:07;10.77;;;6.47;;
23288;SDS011;11813;50.834;4.280;2022-07-06T04:46:32;9.37;;;6.17;;
23288;SDS011;11813;50.834;4.280;2022-07-06T04:48:58;15.03;;;6.50;;
23288;SDS011;11813;50.834;4.280;2022-07-06T04:51:24;10.33;;;6.67;;
23288;SDS011;11813;50.834;4.280;2022-07-06T04:53:49;9.37;;;6.70;;
23288;SDS011;11813;50.834;4.280;2022-07-06T04:56:15;13.23;;;6.70;;
23288;SDS011;11813;50.834;4.280;2022-07-06T04:58:40;18.50;;;7.43;;
23288;SDS011;11813;50.834;4.280;2022-07-06T05:01:06;13.10;;;6.73;;
23288;SDS011;11813;50.834;4.280;2022-07-06T05:03:32;16.10;;;7.33;;
23288;SDS011;11813;50.834;4.280;2022-07-06T05:06:02;12.07;;;7.47;;
23288;SDS011;11813;50.834;4.280;2022-07-06T05:08:30;19.40;;;7.50;;
23288;SDS011;11813;50.834;4.280;2022-07-06T05:10:55;14.73;;;7.27;;
23288;SDS011;11813;50.834;4.280;2022-07-06T05:13:21;11.33;;;6.67;;
23288;SDS011;11813;50.834;4.280;2022-07-06T05:15:47;13.80;;;6.57;;
23288;SDS011;11813;50.834;4.280;2022-07-06T05:18:12;16.73;;;6.77;;
23288;SDS011;11813;50.834;4.280;2022-07-06T05:20:38;18.93;;;7.53;;
23288;SDS011;11813;50.834;4.280;2022-07-06T05:23:04;18.07;;;6.90;;
23288;SDS011;11813;50.834;4.280;2022-07-06T05:25:29;14.40;;;6.67;;
23288;SDS011;11813;50.834;4.280;2022-07-06T05:27:56;13.90;;;7.10;;
23288;SDS011;11813;50.834;4.280;2022-07-06T05:30:22;17.40;;;6.80;;
23288;SDS011;11813;50.834;4.280;2022-07-06T05:32:47;12.57;;;6.47;;
23288;SDS011;11813;50.834;4.280;2022-07-06T05:35:13;16.13;;;7.07;;
23288;SDS011;11813;50.834;4.280;2022-07-06T05:37:38;18.77;;;7.93;;
23288;SDS011;11813;50.834;4.280;2022-07-06T05:40:04;13.93;;;7.27;;
23288;SDS011;11813;50.834;4.280;2022-07-06T05:42:30;13.47;;;7.20;;
23288;SDS011;11813;50.834;4.280;2022-07-06T05:44:56;10.83;;;6.73;;
23288;SDS011;11813;50.834;4.280;2022-07-06T05:47:22;15.13;;;7.13;;
23288;SDS011;11813;50.834;4.280;2022-07-06T05:50:06;14.00;;;8.17;;
23288;SDS011;11813;50.834;4.280;2022-07-06T05:52:39;14.40;;;8.50;;
23288;SDS011;11813;50.834;4.280;2022-07-06T05:55:05;19.73;;;9.40;;
23288;SDS011;11813;50.834;4.280;2022-07-06T05:57:31;12.47;;;9.03;;
23288;SDS011;11813;50.834;4.280;2022-07-06T05:59:57;16.27;;;10.23;;
23288;SDS011;11813;50.834;4.280;2022-07-06T06:02:23;15.77;;;10.20;;
23288;SDS011;11813;50.834;4.280;2022-07-06T06:04:48;21.60;;;10.67;;
23288;SDS011;11813;50.834;4.280;2022-07-06T06:07:14;12.70;;;9.13;;
23288;SDS011;11813;50.834;4.280;2022-07-06T06:09:39;15.33;;;9.90;;
23288;SDS011;11813;50.834;4.280;2022-07-06T06:12:05;15.00;;;9.57;;
23288;SDS011;11813;50.834;4.280;2022-07-06T06:14:31;15.27;;;9.63;;
23288;SDS011;11813;50.834;4.280;2022-07-06T06:16:57;13.97;;;9.43;;
23288;SDS011;11813;50.834;4.280;2022-07-06T06:19:23;12.67;;;9.63;;
23288;SDS011;11813;50.834;4.280;2022-07-06T06:21:48;14.87;;;9.17;;
23288;SDS011;11813;50.834;4.280;2022-07-06T06:24:14;11.70;;;9.27;;
23288;SDS011;11813;50.834;4.280;2022-07-06T06:26:39;14.87;;;9.50;;
23288;SDS011;11813;50.834;4.280;2022-07-06T06:29:05;15.07;;;9.10;;
23288;SDS011;11813;50.834;4.280;2022-07-06T06:31:31;12.90;;;8.93;;
23288;SDS011;11813;50.834;4.280;2022-07-06T06:33:56;16.33;;;9.53;;
23288;SDS011;11813;50.834;4.280;2022-07-06T06:36:22;14.07;;;9.10;;
23288;SDS011;11813;50.834;4.280;2022-07-06T06:38:48;15.40;;;9.23;;
23288;SDS011;11813;50.834;4.280;2022-07-06T06:41:13;17.53;;;8.77;;
23288;SDS011;11813;50.834;4.280;2022-07-06T06:43:39;11.50;;;8.83;;
23288;SDS011;11813;50.834;4.280;2022-07-06T06:46:05;11.40;;;8.60;;
23288;SDS011;11813;50.834;4.280;2022-07-06T06:48:30;11.77;;;8.47;;
23288;SDS011;11813;50.834;4.280;2022-07-06T06:50:56;13.03;;;8.83;;
23288;SDS011;11813;50.834;4.280;2022-07-06T06:53:22;18.07;;;9.10;;
23288;SDS011;11813;50.834;4.280;2022-07-06T06:55:48;14.10;;;9.17;;
23288;SDS011;11813;50.834;4.280;2022-07-06T06:58:13;15.07;;;8.27;;
23288;SDS011;11813;50.834;4.280;2022-07-06T07:00:39;15.17;;;9.50;;
23288;SDS011;11813;50.834;4.280;2022-07-06T07:03:04;13.60;;;9.83;;
23288;SDS011;11813;50.834;4.280;2022-07-06T07:05:30;14.70;;;9.50;;
23288;SDS011;11813;50.834;4.280;2022-07-06T07:07:56;15.90;;;9.80;;
23288;SDS011;11813;50.834;4.280;2022-07-06T07:10:24;13.93;;;9.63;;
23288;SDS011;11813;50.834;4.280;2022-07-06T07:12:50;14.53;;;9.90;;
23288;SDS011;11813;50.834;4.280;2022-07-06T07:15:16;14.13;;;9.57;;
23288;SDS011;11813;50.834;4.280;2022-07-06T07:17:41;12.80;;;9.40;;
23288;SDS011;11813;50.834;4.280;2022-07-06T07:20:07;16.07;;;9.60;;
23288;SDS011;11813;50.834;4.280;2022-07-06T07:22:34;15.53;;;10.67;;
23288;SDS011;11813;50.834;4.280;2022-07-06T07:24:59;16.80;;;10.00;;
23288;SDS011;11813;50.834;4.280;2022-07-06T07:27:25;18.03;;;10.70;;
23288;SDS011;11813;50.834;4.280;2022-07-06T07:29:52;15.63;;;10.53;;
23288;SDS011;11813;50.834;4.280;2022-07-06T07:32:18;14.07;;;9.03;;
23288;SDS011;11813;50.834;4.280;2022-07-06T07:34:44;12.30;;;8.30;;
23288;SDS011;11813;50.834;4.280;2022-07-06T07:37:10;17.57;;;9.43;;
23288;SDS011;11813;50.834;4.280;2022-07-06T07:39:36;13.57;;;8.00;;
23288;SDS011;11813;50.834;4.280;2022-07-06T07:42:01;19.73;;;9.30;;
23288;SDS011;11813;50.834;4.280;2022-07-06T07:44:27;11.30;;;6.50;;
23288;SDS011;11813;50.834;4.280;2022-07-06T07:46:53;9.20;;;4.83;;
23288;SDS011;11813;50.834;4.280;2022-07-06T07:49:18;9.17;;;4.50;;
23288;SDS011;11813;50.834;4.280;2022-07-06T07:51:46;8.37;;;3.33;;
23288;SDS011;11813;50.834;4.280;2022-07-06T07:54:12;8.97;;;4.50;;
23288;SDS011;11813;50.834;4.280;2022-07-06T07:56:38;5.83;;;2.20;;
23288;SDS011;11813;50.834;4.280;2022-07-06T07:59:05;4.80;;;2.40;;
23288;SDS011;11813;50.834;4.280;2022-07-06T08:01:31;6.97;;;3.17;;
23288;SDS011;11813;50.834;4.280;2022-07-06T08:03:57;8.30;;;3.20;;
23288;SDS011;11813;50.834;4.280;2022-07-06T08:06:23;9.17;;;3.97;;
23288;SDS011;11813;50.834;4.280;2022-07-06T08:08:49;8.83;;;3.53;;
23288;SDS011;11813;50.834;4.280;2022-07-06T08:11:16;9.43;;;5.53;;
23288;SDS011;11813;50.834;4.280;2022-07-06T08:13:41;5.97;;;2.87;;
23288;SDS011;11813;50.834;4.280;2022-07-06T08:16:07;8.30;;;3.33;;
23288;SDS011;11813;50.834;4.280;2022-07-06T08:18:34;7.43;;;3.30;;
23288;SDS011;11813;50.834;4.280;2022-07-06T08:21:01;6.73;;;3.57;;
23288;SDS011;11813;50.834;4.280;2022-07-06T08:23:27;7.77;;;2.90;;
23288;SDS011;11813;50.834;4.280;2022-07-06T08:25:52;9.52;;;4.35;;
23288;SDS011;11813;50.834;4.280;2022-07-06T08:28:18;6.87;;;4.17;;
23288;SDS011;11813;50.834;4.280;2022-07-06T08:30:44;8.63;;;4.40;;
23288;SDS011;11813;50.834;4.280;2022-07-06T08:33:09;8.33;;;4.70;;
23288;SDS011;11813;50.834;4.280;2022-07-06T08:35:35;6.75;;;4.10;;
23288;SDS011;11813;50.834;4.280;2022-07-06T08:38:01;5.70;;;4.22;;
23288;SDS011;11813;50.834;4.280;2022-07-06T08:40:28;10.27;;;4.55;;
23288;SDS011;11813;50.834;4.280;2022-07-06T08:42:59;6.65;;;4.40;;
23288;SDS011;11813;50.834;4.280;2022-07-06T08:45:25;9.52;;;4.70;;
23288;SDS011;11813;50.834;4.280;2022-07-06T08:47:51;6.72;;;4.25;;
23288;SDS011;11813;50.834;4.280;2022-07-06T08:50:19;12.25;;;4.88;;
23288;SDS011;11813;50.834;4.280;2022-07-06T08:52:46;6.35;;;4.00;;
23288;SDS011;11813;50.834;4.280;2022-07-06T08:55:13;6.22;;;3.10;;
23288;SDS011;11813;50.834;4.280;2022-07-06T08:57:39;9.07;;;3.70;;
23288;SDS011;11813;50.834;4.280;2022-07-06T09:00:07;3.90;;;2.92;;
23288;SDS011;11813;50.834;4.280;2022-07-06T09:02:33;5.60;;;3.47;;
23288;SDS011;11813;50.834;4.280;2022-07-06T09:05:01;6.60;;;3.60;;
23288;SDS011;11813;50.834;4.280;2022-07-06T09:07:28;7.72;;;4.07;;
23288;SDS011;11813;50.834;4.280;2022-07-06T09:09:54;6.65;;;3.50;;
23288;SDS011;11813;50.834;4.280;2022-07-06T09:12:21;7.68;;;4.13;;
23288;SDS011;11813;50.834;4.280;2022-07-06T09:14:47;7.40;;;3.78;;
23288;SDS011;11813;50.834;4.280;2022-07-06T09:17:13;6.75;;;3.80;;
23288;SDS011;11813;50.834;4.280;2022-07-06T09:19:38;13.10;;;4.13;;
23288;SDS011;11813;50.834;4.280;2022-07-06T09:22:04;6.80;;;4.18;;
23288;SDS011;11813;50.834;4.280;2022-07-06T09:24:30;4.60;;;3.20;;
23288;SDS011;11813;50.834;4.280;2022-07-06T09:26:59;6.05;;;3.28;;
23288;SDS011;11813;50.834;4.280;2022-07-06T09:29:28;6.15;;;3.70;;
23288;SDS011;11813;50.834;4.280;2022-07-06T09:31:55;7.78;;;3.60;;
23288;SDS011;11813;50.834;4.280;2022-07-06T09:34:25;7.35;;;4.05;;
23288;SDS011;11813;50.834;4.280;2022-07-06T09:37:06;6.93;;;3.90;;
23288;SDS011;11813;50.834;4.280;2022-07-06T09:39:32;5.28;;;3.40;;
23288;SDS011;11813;50.834;4.280;2022-07-06T09:41:58;6.10;;;3.95;;
23288;SDS011;11813;50.834;4.280;2022-07-06T09:44:32;8.23;;;3.90;;
23288;SDS011;11813;50.834;4.280;2022-07-06T09:46:59;7.13;;;3.42;;
23288;SDS011;11813;50.834;4.280;2022-07-06T09:49:27;7.30;;;3.88;;
23288;SDS011;11813;50.834;4.280;2022-07-06T09:52:00;6.20;;;3.35;;
23288;SDS011;11813;50.834;4.280;2022-07-06T09:54:28;10.23;;;3.63;;
23288;SDS011;11813;50.834;4.280;2022-07-06T09:56:55;5.85;;;3.67;;
23288;SDS011;11813;50.834;4.280;2022-07-06T09:59:22;6.78;;;3.72;;
23288;SDS011;11813;50.834;4.280;2022-07-06T10:01:51;10.70;;;3.80;;
23288;SDS011;11813;50.834;4.280;2022-07-06T10:04:22;6.60;;;3.25;;
23288;SDS011;11813;50.834;4.280;2022-07-06T10:06:49;4.60;;;3.60;;
23288;SDS011;11813;50.834;4.280;2022-07-06T10:09:15;6.47;;;3.40;;
23288;SDS011;11813;50.834;4.280;2022-07-06T10:11:45;7.72;;;3.78;;
23288;SDS011;11813;50.834;4.280;2022-07-06T10:14:15;7.97;;;3.67;;
23288;SDS011;11813;50.834;4.280;2022-07-06T10:16:43;5.47;;;4.00;;
23288;SDS011;11813;50.834;4.280;2022-07-06T10:19:11;4.43;;;3.60;;
23288;SDS011;11813;50.834;4.280;2022-07-06T10:21:37;3.63;;;3.28;;
23288;SDS011;11813;50.834;4.280;2022-07-06T10:24:04;6.60;;;3.40;;
23288;SDS011;11813;50.834;4.280;2022-07-06T10:26:31;6.63;;;3.63;;
23288;SDS011;11813;50.834;4.280;2022-07-06T10:28:58;6.70;;;4.07;;
23288;SDS011;11813;50.834;4.280;2022-07-06T10:31:25;6.78;;;3.55;;
23288;SDS011;11813;50.834;4.280;2022-07-06T10:33:53;6.68;;;3.20;;
23288;SDS011;11813;50.834;4.280;2022-07-06T10:36:20;9.25;;;3.78;;
23288;SDS011;11813;50.834;4.280;2022-07-06T10:38:51;11.65;;;4.18;;
23288;SDS011;11813;50.834;4.280;2022-07-06T10:41:17;6.43;;;4.03;;
23288;SDS011;11813;50.834;4.280;2022-07-06T10:43:55;7.72;;;3.67;;
23288;SDS011;11813;50.834;4.280;2022-07-06T10:46:22;5.10;;;3.10;;
23288;SDS011;11813;50.834;4.280;2022-07-06T10:48:48;7.18;;;3.50;;
23288;SDS011;11813;50.834;4.280;2022-07-06T10:51:24;7.03;;;3.55;;
23288;SDS011;11813;50.834;4.280;2022-07-06T10:54:10;5.30;;;3.00;;
23288;SDS011;11813;50.834;4.280;2022-07-06T10:59:11;6.63;;;3.40;;
23288;SDS011;11813;50.834;4.280;2022-07-06T11:01:39;6.32;;;3.22;;
23288;SDS011;11813;50.834;4.280;2022-07-06T11:04:05;12.63;;;4.55;;
23288;SDS011;11813;50.834;4.280;2022-07-06T11:06:34;5.10;;;2.90;;
23288;SDS011;11813;50.834;4.280;2022-07-06T11:09:05;8.07;;;3.03;;
23288;SDS011;11813;50.834;4.280;2022-07-06T11:16:31;6.68;;;3.00;;
23288;SDS011;11813;50.834;4.280;2022-07-06T11:19:19;8.27;;;3.17;;
23288;SDS011;11813;50.834;4.280;2022-07-06T11:24:31;6.70;;;3.25;;
23288;SDS011;11813;50.834;4.280;2022-07-06T11:26:58;6.88;;;2.65;;
23288;SDS011;11813;50.834;4.280;2022-07-06T11:29:26;13.85;;;3.22;;
23288;SDS011;11813;50.834;4.280;2022-07-06T11:31:56;9.38;;;2.90;;
23288;SDS011;11813;50.834;4.280;2022-07-06T11:34:26;5.78;;;2.80;;
23288;SDS011;11813;50.834;4.280;2022-07-06T11:36:54;4.78;;;2.78;;
23288;SDS011;11813;50.834;4.280;2022-07-06T11:39:28;6.65;;;2.70;;
23288;SDS011;11813;50.834;4.280;2022-07-06T11:41:55;6.63;;;2.58;;
23288;SDS011;11813;50.834;4.280;2022-07-06T11:44:21;6.07;;;2.92;;
23288;SDS011;11813;50.834;4.280;2022-07-06T11:46:47;5.82;;;2.85;;
23288;SDS011;11813;50.834;4.280;2022-07-06T11:49:13;5.03;;;2.53;;
23288;SDS011;11813;50.834;4.280;2022-07-06T11:51:41;5.50;;;2.83;;
23288;SDS011;11813;50.834;4.280;2022-07-06T11:54:10;7.90;;;2.95;;
23288;SDS011;11813;50.834;4.280;2022-07-06T11:56:46;11.32;;;2.95;;
23288;SDS011;11813;50.834;4.280;2022-07-06T11:59:23;5.18;;;2.83;;
23288;SDS011;11813;50.834;4.280;2022-07-06T12:01:50;4.85;;;2.58;;
23288;SDS011;11813;50.834;4.280;2022-07-06T12:04:33;5.85;;;2.83;;
23288;SDS011;11813;50.834;4.280;2022-07-06T12:07:10;6.72;;;3.30;;
23288;SDS011;11813;50.834;4.280;2022-07-06T12:09:39;5.60;;;3.10;;
23288;SDS011;11813;50.834;4.280;2022-07-06T12:12:06;7.13;;;3.80;;
23288;SDS011;11813;50.834;4.280;2022-07-06T12:14:34;3.92;;;2.97;;
23288;SDS011;11813;50.834;4.280;2022-07-06T12:19:35;9.02;;;3.00;;
23288;SDS011;11813;50.834;4.280;2022-07-06T12:22:02;5.55;;;2.13;;
23288;SDS011;11813;50.834;4.280;2022-07-06T12:24:29;3.63;;;2.60;;
23288;SDS011;11813;50.834;4.280;2022-07-06T12:26:56;5.05;;;3.00;;
23288;SDS011;11813;50.834;4.280;2022-07-06T12:29:22;4.40;;;3.10;;
23288;SDS011;11813;50.834;4.280;2022-07-06T12:31:57;7.32;;;3.22;;
23288;SDS011;11813;50.834;4.280;2022-07-06T12:34:23;7.65;;;3.10;;
23288;SDS011;11813;50.834;4.280;2022-07-06T12:36:54;7.03;;;3.00;;
23288;SDS011;11813;50.834;4.280;2022-07-06T12:39:22;4.32;;;2.53;;
23288;SDS011;11813;50.834;4.280;2022-07-06T12:41:50;5.95;;;2.67;;
23288;SDS011;11813;50.834;4.280;2022-07-06T12:44:17;5.80;;;2.65;;
23288;SDS011;11813;50.834;4.280;2022-07-06T12:46:44;6.82;;;2.55;;
23288;SDS011;11813;50.834;4.280;2022-07-06T12:49:12;5.68;;;2.92;;
23288;SDS011;11813;50.834;4.280;2022-07-06T12:54:17;4.25;;;2.72;;
23288;SDS011;11813;50.834;4.280;2022-07-06T12:56:58;5.95;;;2.58;;
23288;SDS011;11813;50.834;4.280;2022-07-06T12:59:38;5.50;;;2.85;;
23288;SDS011;11813;50.834;4.280;2022-07-06T13:02:23;4.07;;;2.47;;
23288;SDS011;11813;50.834;4.280;2022-07-06T13:07:32;6.07;;;2.58;;
23288;SDS011;11813;50.834;4.280;2022-07-06T13:10:06;6.15;;;3.00;;
23288;SDS011;11813;50.834;4.280;2022-07-06T13:12:34;4.20;;;3.05;;
23288;SDS011;11813;50.834;4.280;2022-07-06T13:15:00;4.63;;;2.33;;
23288;SDS011;11813;50.834;4.280;2022-07-06T13:17:25;5.53;;;2.17;;
23288;SDS011;11813;50.834;4.280;2022-07-06T13:19:51;8.27;;;3.13;;
23288;SDS011;11813;50.834;4.280;2022-07-06T13:22:17;4.65;;;2.25;;
23288;SDS011;11813;50.834;4.280;2022-07-06T13:24:43;4.22;;;2.42;;
23288;SDS011;11813;50.834;4.280;2022-07-06T13:27:09;6.13;;;2.50;;
23288;SDS011;11813;50.834;4.280;2022-07-06T13:29:35;5.40;;;2.13;;
23288;SDS011;11813;50.834;4.280;2022-07-06T13:32:01;6.07;;;2.50;;
23288;SDS011;11813;50.834;4.280;2022-07-06T13:34:27;7.57;;;2.50;;
23288;SDS011;11813;50.834;4.280;2022-07-06T13:36:53;4.53;;;2.47;;
23288;SDS011;11813;50.834;4.280;2022-07-06T13:39:19;5.60;;;2.58;;
23288;SDS011;11813;50.834;4.280;2022-07-06T13:41:45;5.45;;;2.33;;
23288;SDS011;11813;50.834;4.280;2022-07-06T13:44:11;5.45;;;2.47;;
23288;SDS011;11813;50.834;4.280;2022-07-06T13:46:37;8.15;;;2.65;;
23288;SDS011;11813;50.834;4.280;2022-07-06T13:49:04;5.55;;;2.13;;
23288;SDS011;11813;50.834;4.280;2022-07-06T13:51:29;8.68;;;2.30;;
23288;SDS011;11813;50.834;4.280;2022-07-06T13:53:57;5.18;;;2.10;;
23288;SDS011;11813;50.834;4.280;2022-07-06T13:56:23;3.63;;;2.10;;
23288;SDS011;11813;50.834;4.280;2022-07-06T13:58:49;4.03;;;2.00;;
23288;SDS011;11813;50.834;4.280;2022-07-06T14:01:14;4.60;;;2.20;;
23288;SDS011;11813;50.834;4.280;2022-07-06T14:03:40;4.90;;;2.67;;
23288;SDS011;11813;50.834;4.280;2022-07-06T14:06:06;4.40;;;1.52;;
23288;SDS011;11813;50.834;4.280;2022-07-06T14:08:33;3.95;;;1.98;;
23288;SDS011;11813;50.834;4.280;2022-07-06T14:11:02;4.00;;;1.98;;
23288;SDS011;11813;50.834;4.280;2022-07-06T14:13:29;5.13;;;2.30;;
23288;SDS011;11813;50.834;4.280;2022-07-06T14:15:55;4.60;;;2.35;;
23288;SDS011;11813;50.834;4.280;2022-07-06T14:18:21;3.28;;;2.10;;
23288;SDS011;11813;50.834;4.280;2022-07-06T14:20:48;6.15;;;2.70;;
23288;SDS011;11813;50.834;4.280;2022-07-06T14:23:14;3.47;;;2.30;;
23288;SDS011;11813;50.834;4.280;2022-07-06T14:25:40;3.20;;;2.00;;
23288;SDS011;11813;50.834;4.280;2022-07-06T14:28:07;2.50;;;1.73;;
23288;SDS011;11813;50.834;4.280;2022-07-06T14:30:33;5.43;;;2.08;;
23288;SDS011;11813;50.834;4.280;2022-07-06T14:33:02;6.50;;;2.30;;
23288;SDS011;11813;50.834;4.280;2022-07-06T14:35:35;2.65;;;1.73;;
23288;SDS011;11813;50.834;4.280;2022-07-06T14:38:01;6.82;;;1.98;;
23288;SDS011;11813;50.834;4.280;2022-07-06T14:40:27;5.57;;;2.38;;
23288;SDS011;11813;50.834;4.280;2022-07-06T14:42:53;3.22;;;1.77;;
23288;SDS011;11813;50.834;4.280;2022-07-06T14:45:19;5.05;;;1.90;;
23288;SDS011;11813;50.834;4.280;2022-07-06T14:47:44;3.03;;;2.20;;
23288;SDS011;11813;50.834;4.280;2022-07-06T14:50:10;4.15;;;2.10;;
23288;SDS011;11813;50.834;4.280;2022-07-06T14:52:36;4.30;;;2.05;;
23288;SDS011;11813;50.834;4.280;2022-07-06T14:55:01;4.57;;;2.40;;
23288;SDS011;11813;50.834;4.280;2022-07-06T14:57:27;7.10;;;2.30;;
23288;SDS011;11813;50.834;4.280;2022-07-06T14:59:53;7.53;;;2.40;;